Time;durP1;ratioP1;P1;durP2;ratioP2;P2;SDS_P1;SDS_P2;PMS_P1;PMS_P2;Temp;Humidity;BMP_temperature;BMP_pressure;BME280_temperature;BME280_humidity;BME280_pressure;Samples;Min_cycle;Max_cycle;Signal;HPM_P1;HPM_P2
2022/02/10 00:59:56;;;;;;;;;;;;;;;21.66;20.01;101728.01;129990;1084;65446;-90
2022/02/10 01:07:04;;;;;;;;;;;;;;;21.66;20.44;101733.64;129972;1084;64943;-90
2022/02/10 01:38:54;;;;;;;;;;;;;;;21.67;19.95;101710.61;129680;1084;66243;-90
2022/02/10 09:56:00;;;;;;;;;;;;;;;20.39;21.58;101692.27;129653;1084;66270;-90
2022/02/10 10:44:32;;;;;;;;;;;;;;;20.45;22.03;101636.93;129985;1084;66277;-89
2022/02/10 10:58:27;;;;;;;;;;;;;;;20.37;22.13;101599.17;130032;1084;65884;-90
2022/02/10 12:01:02;;;;;;;;;;;;;;;19.94;22.81;101517.81;129991;1084;66275;-90
2022/02/10 12:36:47;;;;;;;;;;;;;;;20.11;23.22;101506.92;129980;1084;66305;-89
2022/02/10 14:13:46;;;;;;;;;;;;;;;20.02;23.30;101439.55;129618;1084;65702;-88
2022/02/10 14:16:37;;;;;;;;;;;;;;;20.02;23.23;101436.73;129933;1084;66154;-89
2022/02/10 14:19:18;;;;;;;;;;;;;;;20.02;23.08;101433.93;129995;1084;66138;-88
2022/02/10 14:22:01;;;;;;;;;;;;;;;20.00;23.27;101425.20;129701;1083;65620;-89
2022/02/10 14:27:11;;;;;;;;;;;;;;;19.97;23.21;101422.13;129588;1084;65688;-88
2022/02/10 14:29:40;;;;;;;;;;;;;;;19.97;23.21;101422.13;129603;1082;66780;-89
2022/02/10 14:32:07;;;;;;;;;;;;;;;19.96;23.31;101420.57;129576;1084;65860;-88
2022/02/10 16:13:43;;;;;;;;;;;;;;;19.57;24.66;101408.52;129635;1084;66358;-89
2022/02/10 16:18:06;;;;;;;;;;;;;;;19.58;24.75;101407.27;129684;1084;66922;-89
2022/02/10 16:20:35;;;;;;;;;;;;;;;19.58;24.66;101407.27;129690;1084;66104;-89
2022/02/10 16:23:07;;;;;;;;;;;;;;;19.58;24.72;101408.02;129980;1084;66135;-89
2022/02/10 16:25:59;;;;;;;;;;;;;;;19.59;24.68;101409.58;129988;1084;65615;-89
2022/02/10 16:28:35;;;;;;;;;;;;;;;19.59;24.64;101409.58;130006;1082;66321;-90
2022/02/10 16:31:01;;;;;;;;;;;;;;;19.60;24.73;101407.56;129667;1084;66825;-89
2022/02/10 16:33:31;;;;;;;;;;;;;;;19.59;24.68;101398.34;130016;1083;66082;-89
2022/02/10 16:36:00;;;;;;;;;;;;;;;19.60;24.80;101405.52;129639;1084;66130;-90
2022/02/10 16:38:27;;;;;;;;;;;;;;;19.62;24.71;101413.48;129678;1084;65722;-90
2022/02/10 16:41:00;;;;;;;;;;;;;;;19.61;24.78;101412.69;130041;1083;66100;-90
2022/02/10 16:43:26;;;;;;;;;;;;;;;19.61;24.72;101409.88;129672;1084;66818;-90
2022/02/10 16:45:54;;;;;;;;;;;;;;;19.61;24.77;101412.69;130001;1084;66125;-89
2022/02/10 16:48:23;;;;;;;;;;;;;;;19.62;24.79;101416.28;129657;1084;65675;-89
2022/02/10 16:50:50;;;;;;;;;;;;;;;19.61;24.83;101409.12;130095;1084;66149;-89
2022/02/10 16:53:22;;;;;;;;;;;;;;;19.60;24.85;101405.52;130108;1082;65584;-89
2022/02/10 16:55:59;;;;;;;;;;;;;;;19.60;24.79;101402.70;129724;1084;66387;-89
2022/02/10 16:58:35;;;;;;;;;;;;;;;19.60;24.88;101399.90;130025;1084;66168;-89
2022/02/10 17:27:01;;;;;;;;;;;;;;;19.55;25.11;101383.71;129964;1084;66253;-89
2022/02/10 17:32:28;;;;;;;;;;;;;;;19.54;25.07;101384.97;129644;1084;66237;-90
2022/02/10 17:46:13;;;;;;;;;;;;;;;19.52;25.11;101374.22;129637;1084;66050;-92
2022/02/10 17:51:56;;;;;;;;;;;;;;;19.52;25.11;101381.86;129597;1084;66276;-89
2022/02/10 17:54:27;;;;;;;;;;;;;;;19.51;25.08;101378.28;129986;1084;66242;-89
2022/02/10 17:56:53;;;;;;;;;;;;;;;19.51;25.23;101367.05;129567;1083;66232;-89
2022/02/10 17:59:21;;;;;;;;;;;;;;;19.51;25.37;101363.45;129612;1083;66178;-89
2022/02/10 18:01:48;;;;;;;;;;;;;;;19.50;25.22;101357.08;129628;1083;66119;-89
2022/02/10 18:04:15;;;;;;;;;;;;;;;19.51;25.15;101352.23;129618;1084;66145;-89
2022/02/10 18:06:45;;;;;;;;;;;;;;;19.50;25.18;101356.32;129591;1084;66182;-89
2022/02/10 18:15:30;;;;;;;;;;;;;;;19.49;25.27;101346.34;129581;1084;65650;-89
2022/02/10 18:18:02;;;;;;;;;;;;;;;19.48;25.16;101345.55;129598;1087;67216;-89
2022/02/10 18:20:36;;;;;;;;;;;;;;;19.47;25.27;101349.61;129586;1084;66142;-90
2022/02/10 18:23:16;;;;;;;;;;;;;;;19.47;25.33;101343.23;129581;1084;65559;-89
2022/02/10 18:25:56;;;;;;;;;;;;;;;19.47;25.22;101348.85;129623;1082;65610;-89
2022/02/10 18:28:31;;;;;;;;;;;;;;;19.47;25.24;101346.05;129550;1084;66273;-89
2022/02/10 19:07:21;;;;;;;;;;;;;;;19.42;25.46;101327.81;129977;1082;65529;-90
2022/02/10 19:09:49;;;;;;;;;;;;;;;19.41;25.38;101329.06;129698;1084;66641;-90
2022/02/10 19:12:22;;;;;;;;;;;;;;;19.41;25.41;101336.73;129936;1082;66771;-89
2022/02/10 19:14:54;;;;;;;;;;;;;;;19.40;25.41;101335.94;129696;1082;65538;-89
2022/02/10 19:17:21;;;;;;;;;;;;;;;19.41;25.68;101333.92;129939;1083;66130;-89
2022/02/10 19:19:52;;;;;;;;;;;;;;;19.38;25.47;101333.62;130009;1084;66236;-90
2022/02/10 19:22:21;;;;;;;;;;;;;;;19.39;25.49;101334.38;129993;1084;66177;-89
2022/02/10 19:24:49;;;;;;;;;;;;;;;19.38;25.53;101332.83;129999;1084;67715;-90
2022/02/10 19:27:16;;;;;;;;;;;;;;;19.38;25.41;101324.41;129957;1082;66215;-89
2022/02/10 19:29:43;;;;;;;;;;;;;;;19.37;25.57;101328.50;129947;1084;66205;-89
2022/02/10 19:32:14;;;;;;;;;;;;;;;19.38;25.72;101333.62;129961;1084;65654;-89
2022/02/10 19:34:41;;;;;;;;;;;;;;;19.37;25.50;101323.64;129694;1084;66154;-89
2022/02/10 19:37:09;;;;;;;;;;;;;;;19.37;25.57;101323.64;129967;1084;67054;-89
2022/02/10 19:45:13;;;;;;;;;;;;;;;19.36;25.45;101310.86;129970;1084;66274;-88
2022/02/10 19:47:40;;;;;;;;;;;;;;;19.37;25.55;101314.47;130019;1084;66320;-88
2022/02/10 19:50:13;;;;;;;;;;;;;;;19.36;25.55;101322.09;130038;1084;66937;-88
2022/02/10 19:52:41;;;;;;;;;;;;;;;19.36;25.51;101318.52;129975;1084;66169;-89
2022/02/10 19:55:10;;;;;;;;;;;;;;;19.36;25.60;101315.72;129971;1083;66184;-89
2022/02/10 19:57:38;;;;;;;;;;;;;;;19.35;25.63;101309.31;129977;1084;66300;-90
2022/02/10 20:00:08;;;;;;;;;;;;;;;19.35;25.58;101306.50;129988;1084;66315;-88
2022/02/10 20:02:34;;;;;;;;;;;;;;;19.34;25.63;101316.18;129983;1084;66899;-88
2022/02/10 20:05:04;;;;;;;;;;;;;;;19.35;25.62;101308.55;129972;1082;66003;-88
2022/02/10 20:07:32;;;;;;;;;;;;;;;19.34;25.50;101304.19;129970;1084;65549;-88
2022/02/10 20:10:00;;;;;;;;;;;;;;;19.34;25.62;101301.39;130024;1083;66209;-88
2022/02/10 20:15:10;;;;;;;;;;;;;;;19.34;25.51;101292.97;130016;1084;67072;-87
2022/02/10 20:17:36;;;;;;;;;;;;;;;19.33;25.69;101302.64;129684;1084;65502;-88
2022/02/10 20:20:03;;;;;;;;;;;;;;;19.33;25.57;101299.83;129662;1084;66271;-88
2022/02/10 20:22:35;;;;;;;;;;;;;;;19.33;25.68;101297.78;129688;1084;66135;-88
2022/02/10 20:25:02;;;;;;;;;;;;;;;19.33;25.55;101292.17;129716;1084;66230;-88
2022/02/10 20:27:28;;;;;;;;;;;;;;;19.32;25.63;101287.05;129660;1084;66144;-91
2022/02/10 20:29:55;;;;;;;;;;;;;;;19.33;25.49;101294.22;129963;1084;66234;-90
2022/02/10 20:32:21;;;;;;;;;;;;;;;19.32;25.73;101289.86;129621;1084;66069;-90
2022/02/10 20:34:47;;;;;;;;;;;;;;;19.32;25.64;101285.01;129660;1084;65630;-90
2022/02/10 20:37:14;;;;;;;;;;;;;;;19.31;25.64;101285.50;129686;1084;65901;-88
2022/02/10 20:39:41;;;;;;;;;;;;;;;19.32;25.63;101287.81;130114;1084;66239;-90
2022/02/10 20:42:15;;;;;;;;;;;;;;;19.31;25.75;101289.07;130038;1083;66253;-90
2022/02/10 20:44:57;;;;;;;;;;;;;;;19.32;25.83;101296.23;129644;1083;65621;-89
2022/02/10 20:47:26;;;;;;;;;;;;;;;19.30;25.65;101286.75;129704;1084;66268;-87
2022/02/10 20:49:53;;;;;;;;;;;;;;;19.30;25.73;101287.52;129684;1084;66271;-89
2022/02/10 20:52:19;;;;;;;;;;;;;;;19.32;25.64;101287.81;129666;1084;65843;-90
2022/02/10 20:54:46;;;;;;;;;;;;;;;19.29;25.73;101280.34;129972;1084;65614;-89
2022/02/10 21:02:50;;;;;;;;;;;;;;;19.29;25.73;101273.98;130004;1084;66450;-88
2022/02/10 21:05:31;;;;;;;;;;;;;;;19.30;25.75;101276.29;129616;1084;66837;-89
2022/02/10 21:10:40;;;;;;;;;;;;;;;19.29;25.80;101274.73;129615;1083;65646;-87
2022/02/10 21:13:07;;;;;;;;;;;;;;;19.27;25.66;101274.44;129976;1084;65744;-89
2022/02/10 21:15:44;;;;;;;;;;;;;;;19.27;25.71;101266.02;129710;1084;66136;-89
2022/02/10 21:18:20;;;;;;;;;;;;;;;19.27;25.96;101263.22;129636;1084;66255;-90
2022/02/10 21:20:46;;;;;;;;;;;;;;;19.26;25.72;101264.47;129658;1084;66235;-90
2022/02/10 21:23:30;;;;;;;;;;;;;;;19.25;25.75;101262.95;129650;1082;66244;-89
2022/02/10 21:26:00;;;;;;;;;;;;;;;19.26;25.79;101261.66;129578;1084;65852;-89
2022/02/10 21:28:31;;;;;;;;;;;;;;;19.25;25.79;101260.14;129590;1084;65902;-89
2022/02/10 21:31:01;;;;;;;;;;;;;;;19.25;25.78;101262.95;129591;1084;66863;-89
2022/02/10 21:38:27;;;;;;;;;;;;;;;19.23;25.91;101248.62;129651;1084;66095;-89
2022/02/10 22:10:55;;;;;;;;;;;;;;;19.20;25.88;101221.52;129592;1084;66140;-89
2022/02/10 22:16:42;;;;;;;;;;;;;;;19.19;25.90;101209.50;129963;1084;66195;-89
2022/02/10 22:19:12;;;;;;;;;;;;;;;19.19;25.95;101208.73;129597;1084;65828;-89
2022/02/10 22:21:55;;;;;;;;;;;;;;;19.19;25.92;101217.16;129927;1082;65663;-89
2022/02/10 22:24:22;;;;;;;;;;;;;;;19.19;26.16;101211.55;129745;1084;66114;-89
2022/02/10 22:26:51;;;;;;;;;;;;;;;19.18;25.88;101205.14;129650;1084;65640;-89
2022/02/10 22:34:43;;;;;;;;;;;;;;;19.18;25.96;101215.60;129989;1084;65654;-89
2022/02/10 22:37:11;;;;;;;;;;;;;;;19.17;25.89;101212.01;129971;1084;67179;-89
2022/02/10 22:39:43;;;;;;;;;;;;;;;19.18;26.01;101215.60;129682;1084;66238;-89
2022/02/10 22:42:09;;;;;;;;;;;;;;;19.17;25.87;101206.39;129696;1083;66135;-89
2022/02/10 22:44:35;;;;;;;;;;;;;;;19.18;25.96;101207.95;129984;1084;65576;-89
2022/02/10 22:47:02;;;;;;;;;;;;;;;19.17;25.96;101203.59;129652;1084;65576;-89
2022/02/10 22:49:28;;;;;;;;;;;;;;;19.17;25.74;101202.83;129684;1084;66138;-89
2022/02/10 22:51:54;;;;;;;;;;;;;;;19.16;25.77;101193.63;129649;1084;65696;-90
2022/02/10 22:54:20;;;;;;;;;;;;;;;19.16;25.95;101202.04;129630;1084;66357;-89
2022/02/10 22:59:31;;;;;;;;;;;;;;;19.17;25.99;101202.83;129953;1084;66201;-89
2022/02/10 23:01:57;;;;;;;;;;;;;;;19.16;25.96;101199.23;129670;1084;66250;-89
2022/02/10 23:04:23;;;;;;;;;;;;;;;19.17;26.11;101186.00;129952;1083;66224;-89
2022/02/10 23:11:54;;;;;;;;;;;;;;;19.15;25.92;101183.77;103809;1295;69908;-88
2022/02/10 23:14:21;;;;;;;;;;;;;;;19.14;25.95;101177.16;103545;1307;69878;-89
2022/02/10 23:16:46;;;;;;;;;;;;;;;19.14;25.93;101175.33;103785;1308;70213;-88
2022/02/10 23:19:12;;;;;;;;;;;;;;;19.13;26.01;101169.85;103723;1307;70115;-88
2022/02/10 23:21:38;;;;;;;;;;;;;;;19.12;25.87;101166.31;103683;1305;201011;-89
2022/02/10 23:24:05;;;;;;;;;;;;;;;19.10;25.90;101166.33;103775;1303;69980;-89
2022/02/10 23:26:30;;;;;;;;;;;;;;;19.09;25.87;101161.72;103609;1305;70023;-88
2022/02/10 23:28:56;;;;;;;;;;;;;;;19.07;25.89;101160.77;103914;1305;69998;-88
2022/02/10 23:31:27;;;;;;;;;;;;;;;19.06;25.86;101161.30;104017;1303;72741;-88
2022/02/10 23:33:57;;;;;;;;;;;;;;;19.04;25.88;101155.46;103747;1304;69930;-88
2022/02/10 23:36:48;;;;;;;;;;;;;;;19.03;25.87;101152.88;104454;1291;69902;-87
2022/02/10 23:39:31;;;;;;;;;;;;;;;19.02;25.85;101152.36;104459;1301;74426;-87
2022/02/10 23:42:14;;;;;;;;;;;;;;;19.02;25.89;101151.59;104359;1300;84402;-89
2022/02/10 23:47:48;;;;;;;;;;;;;;;19.00;25.99;101144.94;104002;1292;69997;-89
2022/02/10 23:50:27;;;;;;;;;;;;;;;18.99;25.92;101139.20;104174;1293;70112;-88
2022/02/10 23:52:57;;;;;;;;;;;;;;;18.98;25.91;101137.43;104313;1300;73098;-87
2022/02/10 23:55:32;;;;;;;;;;;;;;;18.98;25.94;101141.67;104106;1299;84684;-87
